createdAt,value
2023-03-18T00:00:41.364Z,33.00
2023-03-18T00:03:17.417Z,35.20
2023-03-18T00:05:44.984Z,35.20
2023-03-18T00:08:11.682Z,36.20
2023-03-18T00:10:39.025Z,34.10
2023-03-18T00:13:05.762Z,40.30
2023-03-18T00:15:32.243Z,34.30
2023-03-18T00:17:59.203Z,31.10
2023-03-18T00:20:28.406Z,32.60
2023-03-18T00:22:56.859Z,30.90
2023-03-18T00:25:23.278Z,29.90
2023-03-18T00:27:50.215Z,33.80
2023-03-18T00:30:17.904Z,34.10
2023-03-18T00:32:44.344Z,29.90
2023-03-18T00:35:11.576Z,34.80
2023-03-18T00:37:38.105Z,35.40
2023-03-18T00:40:09.633Z,30.90
2023-03-18T00:42:39.423Z,32.60
2023-03-18T00:45:08.388Z,31.10
2023-03-18T00:47:35.268Z,29.50
2023-03-18T00:50:02.688Z,31.50
2023-03-18T00:52:31.698Z,30.70
2023-03-18T00:55:00.171Z,29.50
2023-03-18T00:57:28.779Z,29.70
2023-03-18T00:59:56.441Z,31.40
2023-03-18T01:02:23.051Z,34.50
2023-03-18T01:04:50.530Z,29.00
2023-03-18T01:07:17.471Z,32.50
2023-03-18T01:09:44.482Z,29.40
2023-03-18T01:12:12.088Z,30.10
2023-03-18T01:14:39.410Z,34.00
2023-03-18T01:17:07.248Z,28.00
2023-03-18T01:19:34.175Z,29.20
2023-03-18T01:22:01.883Z,30.30
2023-03-18T01:24:28.853Z,29.30
2023-03-18T01:26:56.272Z,29.40
2023-03-18T01:29:23.159Z,29.30
2023-03-18T01:31:50.796Z,30.70
2023-03-18T01:34:18.022Z,27.90
2023-03-18T01:36:45.639Z,28.10
2023-03-18T01:39:12.625Z,30.00
2023-03-18T01:41:39.710Z,29.20
2023-03-18T01:44:12.862Z,27.80
2023-03-18T01:46:44.293Z,28.10
2023-03-18T01:49:40.899Z,27.40
2023-03-18T01:52:16.325Z,29.00
2023-03-18T01:54:48.972Z,31.50
2023-03-18T01:57:17.262Z,25.70
2023-03-18T01:59:47.060Z,32.00
2023-03-18T02:02:15.700Z,30.90
2023-03-18T02:04:46.993Z,24.70
2023-03-18T02:07:19.367Z,26.90
2023-03-18T02:09:47.443Z,27.80
2023-03-18T02:12:19.063Z,25.60
2023-03-18T02:14:46.092Z,25.00
2023-03-18T02:17:18.742Z,30.90
2023-03-18T02:19:54.247Z,27.10
2023-03-18T02:22:33.489Z,25.70
2023-03-18T02:25:45.337Z,30.60
2023-03-18T02:28:17.288Z,26.00
2023-03-18T02:30:48.342Z,25.40
2023-03-18T02:33:17.348Z,28.20
2023-03-18T02:35:46.804Z,25.70
2023-03-18T02:38:13.420Z,29.40
2023-03-18T02:40:41.977Z,28.30
2023-03-18T02:43:16.364Z,25.80
2023-03-18T02:46:12.293Z,24.60
2023-03-18T02:48:42.721Z,28.40
2023-03-18T02:51:10.471Z,24.50
2023-03-18T02:53:37.683Z,26.30
2023-03-18T02:56:05.151Z,25.60
2023-03-18T02:58:32.138Z,26.10
2023-03-18T03:00:59.107Z,25.10
2023-03-18T03:03:26.050Z,23.80
2023-03-18T03:05:53.172Z,24.50
2023-03-18T03:08:19.789Z,26.00
2023-03-18T03:10:46.645Z,24.50
2023-03-18T03:13:13.103Z,25.80
2023-03-18T03:15:40.090Z,24.00
2023-03-18T03:18:07.023Z,26.00
2023-03-18T03:20:34.977Z,27.00
2023-03-18T03:23:03.379Z,22.30
2023-03-18T03:25:30.289Z,23.70
2023-03-18T03:27:56.947Z,21.80
2023-03-18T03:30:23.770Z,24.10
2023-03-18T03:32:51.075Z,27.70
2023-03-18T03:35:18.956Z,23.80
2023-03-18T03:37:45.477Z,24.00
2023-03-18T03:40:15.398Z,23.20
2023-03-18T03:42:42.523Z,24.80
2023-03-18T03:45:09.657Z,24.40
2023-03-18T03:47:36.327Z,21.20
2023-03-18T03:50:03.392Z,25.60
2023-03-18T03:52:29.867Z,23.60
2023-03-18T03:54:56.320Z,22.20
2023-03-18T03:57:26.492Z,23.30
2023-03-18T03:59:53.571Z,23.30
2023-03-18T04:02:23.146Z,24.30
2023-03-18T04:04:50.998Z,23.30
2023-03-18T04:07:17.614Z,23.10
2023-03-18T04:09:44.058Z,22.10
2023-03-18T04:12:11.423Z,28.10
2023-03-18T04:14:38.757Z,22.70
2023-03-18T04:17:05.723Z,22.20
2023-03-18T04:19:33.281Z,26.20
2023-03-18T04:21:59.678Z,22.60
2023-03-18T04:24:26.697Z,22.10
2023-03-18T04:26:53.507Z,24.80
2023-03-18T04:29:20.392Z,22.00
2023-03-18T04:31:46.986Z,24.70
2023-03-18T04:34:13.401Z,21.60
2023-03-18T04:36:39.996Z,24.90
2023-03-18T04:39:08.832Z,24.50
2023-03-18T04:41:39.142Z,22.30
2023-03-18T04:44:05.888Z,21.30
2023-03-18T04:46:32.584Z,25.20
2023-03-18T04:48:59.169Z,21.00
2023-03-18T04:51:25.801Z,22.30
2023-03-18T04:53:53.105Z,25.40
2023-03-18T04:56:20.140Z,27.50
2023-03-18T04:58:47.231Z,24.70
2023-03-18T05:01:14.311Z,26.50
2023-03-18T05:03:41.125Z,25.10
2023-03-18T05:06:08.916Z,25.80
2023-03-18T05:08:35.362Z,25.30
2023-03-18T05:11:01.742Z,23.80
2023-03-18T05:13:28.642Z,23.10
2023-03-18T05:15:55.039Z,24.20
2023-03-18T05:18:21.393Z,23.70
2023-03-18T05:20:47.795Z,22.70
2023-03-18T05:23:14.293Z,25.70
2023-03-18T05:25:40.958Z,26.50
2023-03-18T05:28:08.851Z,24.90
2023-03-18T05:30:39.896Z,28.00
2023-03-18T05:33:07.239Z,27.50
2023-03-18T05:35:34.068Z,28.60
2023-03-18T05:38:01.161Z,24.70
2023-03-18T05:40:28.242Z,24.00
2023-03-18T05:42:56.478Z,24.20
2023-03-18T05:45:24.856Z,27.50
2023-03-18T05:47:52.245Z,25.80
2023-03-18T05:50:29.456Z,25.20
2023-03-18T05:52:56.222Z,30.80
2023-03-18T05:55:22.852Z,27.10
2023-03-18T05:57:49.786Z,25.50
2023-03-18T06:00:18.095Z,24.60
2023-03-18T06:02:45.687Z,24.40
2023-03-18T06:05:12.785Z,24.90
2023-03-18T06:07:39.237Z,23.90
2023-03-18T06:10:07.327Z,27.20
2023-03-18T06:12:35.373Z,23.40
2023-03-18T06:15:03.072Z,24.90
2023-03-18T06:17:29.499Z,24.90
2023-03-18T06:19:56.537Z,23.50
2023-03-18T06:22:22.964Z,20.50
2023-03-18T06:24:49.421Z,18.80
2023-03-18T06:27:16.482Z,18.70
2023-03-18T06:29:43.557Z,15.60
2023-03-18T06:32:10.170Z,19.00
2023-03-18T06:34:37.287Z,17.20
2023-03-18T06:37:04.377Z,15.40
2023-03-18T06:39:31.242Z,15.90
2023-03-18T06:41:58.250Z,22.50
2023-03-18T06:44:24.696Z,25.20
2023-03-18T06:46:51.109Z,17.60
2023-03-18T06:49:17.768Z,20.80
2023-03-18T06:51:44.827Z,25.80
2023-03-18T06:54:11.838Z,22.90
2023-03-18T06:56:39.469Z,20.00
2023-03-18T06:59:07.364Z,17.80
2023-03-18T07:01:35.443Z,27.80
2023-03-18T07:04:06.053Z,17.60
2023-03-18T07:06:33.095Z,27.30
2023-03-18T07:09:00.596Z,20.70
2023-03-18T07:11:27.538Z,34.70
2023-03-18T07:13:54.079Z,20.40
2023-03-18T07:16:20.757Z,20.80
2023-03-18T07:18:48.132Z,19.00
2023-03-18T07:21:16.057Z,17.70
2023-03-18T07:23:42.513Z,20.80
2023-03-18T07:26:09.774Z,18.90
2023-03-18T07:28:36.190Z,18.20
2023-03-18T07:31:03.352Z,16.80
2023-03-18T07:33:30.268Z,15.70
2023-03-18T07:35:57.102Z,18.90
2023-03-18T07:38:23.733Z,17.20
2023-03-18T07:40:50.196Z,15.30
2023-03-18T07:43:17.196Z,15.20
2023-03-18T07:45:44.316Z,12.40
2023-03-18T07:48:11.178Z,14.60
2023-03-18T07:50:37.657Z,12.40
2023-03-18T07:53:04.078Z,14.80
2023-03-18T07:55:31.327Z,12.40
2023-03-18T07:57:58.997Z,11.90
2023-03-18T08:00:25.611Z,11.40
2023-03-18T08:02:52.275Z,15.70
2023-03-18T08:05:19.383Z,14.40
2023-03-18T08:07:45.934Z,10.50
2023-03-18T08:10:14.470Z,12.70
2023-03-18T08:12:52.552Z,12.20
2023-03-18T08:15:21.598Z,15.00
2023-03-18T08:17:48.377Z,11.40
2023-03-18T08:20:15.309Z,13.40
2023-03-18T08:22:41.805Z,11.90
2023-03-18T08:25:08.908Z,17.30
2023-03-18T08:27:36.024Z,13.40
2023-03-18T08:30:03.944Z,13.80
2023-03-18T08:32:31.886Z,10.70
2023-03-18T08:34:58.897Z,13.10
2023-03-18T08:37:25.378Z,9.80
2023-03-18T08:39:52.026Z,13.30
2023-03-18T08:42:19.012Z,11.10
2023-03-18T08:44:45.982Z,14.50
2023-03-18T08:47:12.901Z,13.00
2023-03-18T08:49:39.523Z,13.30
2023-03-18T08:52:06.305Z,11.70
2023-03-18T08:54:32.830Z,14.10
2023-03-18T08:57:00.030Z,11.30
2023-03-18T08:59:26.982Z,11.40
2023-03-18T09:01:53.415Z,10.50
2023-03-18T09:04:19.870Z,12.90
2023-03-18T09:06:48.145Z,11.70
2023-03-18T09:09:15.149Z,13.40
2023-03-18T09:11:42.116Z,12.50
2023-03-18T09:14:09.001Z,10.10
2023-03-18T09:16:35.733Z,10.00
2023-03-18T09:19:02.765Z,12.50
2023-03-18T09:21:29.277Z,13.90
2023-03-18T09:23:55.934Z,9.70
2023-03-18T09:26:23.330Z,9.20
2023-03-18T09:28:50.285Z,9.10
2023-03-18T09:31:17.470Z,6.40
2023-03-18T09:33:47.203Z,11.10
2023-03-18T09:36:14.138Z,10.50
2023-03-18T09:38:41.925Z,9.70
2023-03-18T09:41:22.701Z,10.30
2023-03-18T09:43:58.428Z,8.60
2023-03-18T09:46:35.403Z,10.20
2023-03-18T09:49:40.884Z,10.10
2023-03-18T09:52:37.036Z,10.80
2023-03-18T09:55:12.558Z,12.60
2023-03-18T09:57:43.660Z,10.80
2023-03-18T10:00:23.629Z,11.00
2023-03-18T10:03:11.117Z,10.80
2023-03-18T10:05:51.410Z,12.30
2023-03-18T10:08:39.148Z,11.20
2023-03-18T10:11:13.532Z,12.40
2023-03-18T10:13:46.206Z,11.20
2023-03-18T10:16:21.134Z,12.20
2023-03-18T10:18:47.670Z,14.00
2023-03-18T10:21:51.850Z,12.30
2023-03-18T10:24:35.439Z,14.60
2023-03-18T10:27:21.812Z,14.20
2023-03-18T10:29:54.122Z,14.80
2023-03-18T10:32:58.343Z,12.60
2023-03-18T10:35:45.067Z,10.70
2023-03-18T10:38:29.137Z,12.20
2023-03-18T10:40:55.862Z,11.50
2023-03-18T10:43:27.499Z,14.10
2023-03-18T10:46:03.185Z,10.30
2023-03-18T10:48:36.837Z,10.80
2023-03-18T10:52:07.921Z,14.50
2023-03-18T10:54:49.680Z,12.20
2023-03-18T10:57:17.970Z,13.00
2023-03-18T10:59:45.429Z,13.70
2023-03-18T11:02:34.331Z,10.40
2023-03-18T11:05:10.853Z,14.50
2023-03-18T11:07:55.189Z,15.40
2023-03-18T11:10:27.108Z,14.00
2023-03-18T11:13:01.817Z,13.40
2023-03-18T11:15:35.622Z,13.70
2023-03-18T11:18:02.694Z,11.30
2023-03-18T11:20:43.380Z,14.80
2023-03-18T11:23:19.994Z,10.80
2023-03-18T11:25:50.604Z,13.70
2023-03-18T11:28:26.590Z,12.10
2023-03-18T11:30:57.067Z,10.30
2023-03-18T11:33:26.359Z,9.90
2023-03-18T11:35:57.624Z,13.30
2023-03-18T11:38:28.005Z,11.20
2023-03-18T11:41:16.426Z,10.90
2023-03-18T11:43:55.676Z,10.80
2023-03-18T11:46:25.825Z,11.40
2023-03-18T11:48:52.397Z,8.80
2023-03-18T11:51:42.243Z,9.70
2023-03-18T11:54:14.947Z,10.00
2023-03-18T11:56:44.987Z,11.60
2023-03-18T11:59:14.358Z,12.90
2023-03-18T12:01:57.016Z,12.00
2023-03-18T12:04:27.085Z,17.90
2023-03-18T12:07:26.807Z,14.30
2023-03-18T12:10:12.355Z,12.20
2023-03-18T12:12:44.917Z,11.40
2023-03-18T12:15:37.869Z,13.30
2023-03-18T12:18:25.002Z,12.60
2023-03-18T12:20:53.489Z,14.10
2023-03-18T12:23:29.410Z,15.60
2023-03-18T12:26:10.619Z,14.90
2023-03-18T12:29:01.589Z,13.60
2023-03-18T12:32:04.292Z,10.70
2023-03-18T12:34:52.642Z,10.80
2023-03-18T12:38:04.246Z,10.70
2023-03-18T12:40:44.805Z,9.30
2023-03-18T12:43:26.535Z,15.40
2023-03-18T12:46:19.216Z,19.30
2023-03-18T12:49:24.731Z,15.90
2023-03-18T12:52:05.750Z,25.50
2023-03-18T12:54:53.230Z,20.10
2023-03-18T12:57:24.071Z,18.80
2023-03-18T13:00:09.806Z,42.50
2023-03-18T13:02:43.327Z,55.90
2023-03-18T13:07:53.503Z,35.90
2023-03-18T13:10:23.060Z,11.60
2023-03-18T13:12:57.386Z,22.90
2023-03-18T13:15:35.340Z,27.40
2023-03-18T13:18:27.618Z,14.60
2023-03-18T13:20:58.971Z,15.70
2023-03-18T13:23:51.816Z,11.50
2023-03-18T13:26:56.347Z,8.00
2023-03-18T13:32:50.618Z,15.80
2023-03-18T13:35:31.874Z,11.90
2023-03-18T13:38:09.451Z,7.30
2023-03-18T13:40:42.647Z,14.50
2023-03-18T13:43:14.975Z,14.10
2023-03-18T13:45:50.722Z,11.50
2023-03-18T13:48:27.352Z,8.00
2023-03-18T13:50:56.884Z,8.10
2023-03-18T13:53:31.378Z,10.70
2023-03-18T13:55:57.813Z,20.50
2023-03-18T13:58:29.789Z,16.90
2023-03-18T14:01:02.606Z,11.60
2023-03-18T14:03:49.728Z,14.20
2023-03-18T14:06:16.139Z,15.90
2023-03-18T14:09:21.186Z,19.00
2023-03-18T14:12:19.957Z,15.20
2023-03-18T14:15:03.433Z,13.90
2023-03-18T14:17:48.422Z,12.60
2023-03-18T14:20:15.535Z,13.30
2023-03-18T14:22:48.055Z,12.80
2023-03-18T14:25:17.324Z,9.80
2023-03-18T14:27:57.819Z,9.60
2023-03-18T14:30:31.274Z,11.50
2023-03-18T14:33:20.128Z,12.90
2023-03-18T14:36:05.061Z,12.00
2023-03-18T14:38:45.984Z,13.50
2023-03-18T14:41:22.057Z,10.20
2023-03-18T14:44:21.498Z,10.30
2023-03-18T14:46:57.755Z,15.80
2023-03-18T14:50:03.473Z,11.10
2023-03-18T14:52:35.817Z,11.50
2023-03-18T14:55:08.471Z,11.50
2023-03-18T14:57:36.039Z,13.40
2023-03-18T15:00:06.050Z,14.60
2023-03-18T15:02:37.393Z,13.60
2023-03-18T15:05:05.869Z,18.70
2023-03-18T15:07:38.356Z,15.10
2023-03-18T15:10:13.164Z,14.70
2023-03-18T15:12:40.122Z,13.70
2023-03-18T15:15:13.178Z,12.10
2023-03-18T15:17:39.674Z,15.60
2023-03-18T15:20:12.195Z,16.80
2023-03-18T15:22:39.391Z,14.20
2023-03-18T15:25:10.556Z,14.60
2023-03-18T15:27:37.735Z,13.10
2023-03-18T15:30:06.637Z,15.20
2023-03-18T15:32:45.111Z,13.10
2023-03-18T15:35:26.010Z,17.40
2023-03-18T15:38:26.328Z,13.80
2023-03-18T15:41:11.779Z,17.80
2023-03-18T15:43:43.340Z,21.70
2023-03-18T15:46:25.168Z,15.10
2023-03-18T15:48:57.023Z,16.50
2023-03-18T15:51:29.391Z,14.90
2023-03-18T15:54:02.596Z,17.00
2023-03-18T15:56:32.395Z,18.60
2023-03-18T15:59:08.445Z,20.00
2023-03-18T16:01:35.798Z,22.90
2023-03-18T16:04:06.010Z,20.00
2023-03-18T16:06:33.855Z,18.20
2023-03-18T16:09:01.301Z,19.40
2023-03-18T16:11:29.350Z,21.90
2023-03-18T16:13:56.137Z,22.50
2023-03-18T16:16:27.276Z,20.80
2023-03-18T16:18:53.977Z,22.00
2023-03-18T16:21:20.504Z,24.30
2023-03-18T16:23:47.769Z,22.50
2023-03-18T16:26:16.798Z,27.50
2023-03-18T16:28:47.109Z,34.10
2023-03-18T16:31:15.044Z,28.20
2023-03-18T16:33:41.980Z,28.10
2023-03-18T16:36:25.161Z,24.60
2023-03-18T16:38:52.024Z,32.50
2023-03-18T16:41:19.234Z,31.20
2023-03-18T16:43:48.473Z,35.60
2023-03-18T16:46:16.751Z,28.60
2023-03-18T16:48:43.245Z,28.80
2023-03-18T16:51:10.112Z,25.80
2023-03-18T16:53:36.504Z,24.50
2023-03-18T16:56:08.189Z,24.60
2023-03-18T16:58:35.961Z,26.70
2023-03-18T17:01:06.563Z,24.10
2023-03-18T17:03:34.309Z,25.20
2023-03-18T17:06:01.371Z,25.60
2023-03-18T17:08:27.813Z,24.00
2023-03-18T17:10:57.719Z,22.00
2023-03-18T17:13:27.836Z,24.20
2023-03-18T17:15:54.911Z,27.00
2023-03-18T17:18:24.253Z,28.80
2023-03-18T17:20:51.385Z,28.00
2023-03-18T17:23:26.619Z,26.00
2023-03-18T17:25:56.224Z,26.90
2023-03-18T17:28:33.829Z,30.80
2023-03-18T17:31:00.487Z,50.60
2023-03-18T17:33:32.115Z,33.50
2023-03-18T17:36:01.213Z,35.50
2023-03-18T17:38:30.056Z,42.80
2023-03-18T17:40:58.115Z,55.50
2023-03-18T17:43:35.913Z,62.40
2023-03-18T17:46:04.331Z,50.80
2023-03-18T17:48:33.937Z,40.00
2023-03-18T17:51:04.137Z,43.70
2023-03-18T17:53:39.318Z,37.30
2023-03-18T17:56:09.878Z,32.60
2023-03-18T17:58:36.520Z,29.80
2023-03-18T18:01:11.982Z,26.20
2023-03-18T18:03:39.913Z,25.50
2023-03-18T18:06:07.684Z,26.70
2023-03-18T18:08:34.126Z,25.50
2023-03-18T18:11:17.109Z,23.80
2023-03-18T18:13:43.746Z,23.50
2023-03-18T18:16:10.346Z,26.80
2023-03-18T18:18:36.992Z,30.20
2023-03-18T18:21:10.587Z,28.80
2023-03-18T18:26:11.587Z,29.00
2023-03-18T18:28:40.453Z,27.00
2023-03-18T18:31:10.160Z,24.90
2023-03-18T18:33:39.002Z,30.80
2023-03-18T18:36:06.367Z,33.80
2023-03-18T18:38:33.896Z,35.90
2023-03-18T18:41:00.875Z,30.10
2023-03-18T18:43:30.387Z,31.00
2023-03-18T18:45:57.874Z,30.80
2023-03-18T18:48:33.527Z,30.00
2023-03-18T18:51:05.447Z,33.20
2023-03-18T18:53:38.964Z,27.40
2023-03-18T18:56:22.925Z,33.80
2023-03-18T19:01:18.246Z,34.30
2023-03-18T19:03:46.308Z,34.00
2023-03-18T19:06:25.484Z,33.60
2023-03-18T19:08:54.779Z,31.40
2023-03-18T19:11:23.996Z,28.80
2023-03-18T19:13:53.148Z,33.90
2023-03-18T19:16:33.006Z,33.40
2023-03-18T19:18:59.837Z,29.10
2023-03-18T19:21:27.271Z,27.80
2023-03-18T19:23:54.342Z,26.00
2023-03-18T19:26:21.411Z,26.10
2023-03-18T19:29:00.478Z,24.30
2023-03-18T19:31:34.307Z,26.20
2023-03-18T19:34:02.104Z,29.90
2023-03-18T19:36:31.790Z,27.00
2023-03-18T19:39:00.813Z,25.90
2023-03-18T19:41:28.500Z,27.00
2023-03-18T19:44:01.541Z,27.90
2023-03-18T19:46:38.414Z,29.30
2023-03-18T19:49:23.437Z,27.70
2023-03-18T19:51:51.809Z,26.60
2023-03-18T19:54:24.644Z,27.50
2023-03-18T19:56:53.853Z,31.60
2023-03-18T19:59:23.568Z,25.60
2023-03-18T20:01:51.325Z,27.00
2023-03-18T20:04:22.441Z,29.00
2023-03-18T20:06:50.000Z,27.10
2023-03-18T20:09:19.548Z,27.10
2023-03-18T20:11:49.866Z,27.60
2023-03-18T20:14:27.451Z,28.40
2023-03-18T20:16:55.743Z,29.00
2023-03-18T20:19:22.322Z,30.30
2023-03-18T20:21:49.006Z,28.90
2023-03-18T20:24:18.781Z,28.40
2023-03-18T20:26:45.747Z,28.50
2023-03-18T20:29:18.394Z,29.00
2023-03-18T20:31:45.744Z,29.70
2023-03-18T20:34:12.303Z,28.00
2023-03-18T20:36:40.015Z,30.30
2023-03-18T20:39:13.640Z,32.10
2023-03-18T20:44:11.817Z,29.20
2023-03-18T20:46:39.847Z,30.90
2023-03-18T20:49:06.800Z,28.00
2023-03-18T20:51:37.360Z,29.00
2023-03-18T20:54:18.465Z,27.50
2023-03-18T20:56:46.878Z,24.70
2023-03-18T20:59:14.074Z,24.20
2023-03-18T21:01:41.241Z,23.70
2023-03-18T21:04:12.065Z,28.20
2023-03-18T21:06:40.529Z,30.70
2023-03-18T21:09:09.567Z,23.50
2023-03-18T21:11:37.381Z,26.10
2023-03-18T21:14:06.670Z,33.50
2023-03-18T21:16:37.594Z,43.70
2023-03-18T21:19:04.537Z,36.10
2023-03-18T21:21:37.949Z,32.30
2023-03-18T21:24:26.302Z,29.00
2023-03-18T21:27:05.608Z,28.60
2023-03-18T21:29:33.329Z,28.30
2023-03-18T21:32:01.930Z,27.00
2023-03-18T21:34:29.006Z,26.20
2023-03-18T21:36:55.809Z,26.30
2023-03-18T21:39:22.534Z,25.00
2023-03-18T21:41:49.010Z,29.50
2023-03-18T21:44:15.643Z,24.00
2023-03-18T21:46:43.124Z,22.70
2023-03-18T21:49:10.563Z,28.60
2023-03-18T21:51:40.190Z,26.60
2023-03-18T21:54:18.303Z,26.60
2023-03-18T21:56:45.739Z,25.50
2023-03-18T21:59:12.391Z,29.60
2023-03-18T22:01:39.064Z,20.30
2023-03-18T22:04:06.328Z,22.80
2023-03-18T22:06:33.410Z,24.10
2023-03-18T22:09:00.040Z,22.60
2023-03-18T22:11:27.523Z,22.40
2023-03-18T22:13:54.657Z,25.00
2023-03-18T22:16:21.882Z,22.30
2023-03-18T22:18:48.808Z,24.60
2023-03-18T22:21:23.834Z,20.90
2023-03-18T22:23:51.302Z,22.50
2023-03-18T22:26:19.916Z,19.70
2023-03-18T22:28:52.550Z,23.30
2023-03-18T22:31:25.472Z,24.40
2023-03-18T22:33:55.627Z,37.40
2023-03-18T22:36:23.166Z,26.80
2023-03-18T22:38:49.755Z,31.60
2023-03-18T22:41:28.737Z,28.00
2023-03-18T22:43:57.376Z,31.40
2023-03-18T22:46:24.548Z,22.70
2023-03-18T22:48:51.335Z,28.50
2023-03-18T22:51:29.118Z,24.60
2023-03-18T22:53:56.523Z,22.00
2023-03-18T22:56:23.639Z,33.60
2023-03-18T22:58:51.364Z,24.70
2023-03-18T23:01:27.361Z,24.40
2023-03-18T23:03:53.884Z,20.00
2023-03-18T23:06:23.265Z,20.50
2023-03-18T23:08:50.260Z,19.10
2023-03-18T23:11:16.886Z,22.40
2023-03-18T23:13:47.518Z,22.40
2023-03-18T23:16:17.404Z,27.90
2023-03-18T23:18:44.062Z,51.60
2023-03-18T23:21:19.914Z,24.80
2023-03-18T23:23:47.772Z,21.50
2023-03-18T23:26:15.556Z,29.60
2023-03-18T23:28:44.805Z,26.20
2023-03-18T23:31:13.513Z,19.70
2023-03-18T23:33:40.439Z,18.20
2023-03-18T23:36:08.178Z,17.50
2023-03-18T23:38:34.770Z,18.10
2023-03-18T23:41:01.327Z,24.40
2023-03-18T23:43:27.936Z,52.50
2023-03-18T23:45:56.254Z,37.70
2023-03-18T23:48:23.349Z,19.90
2023-03-18T23:50:50.089Z,17.10
2023-03-18T23:53:16.686Z,23.30
2023-03-18T23:55:43.276Z,21.00
2023-03-18T23:58:10.225Z,23.00
